createdAt,value
2022-10-13T00:01:14.479Z,68.84
2022-10-13T00:03:46.995Z,69.18
2022-10-13T00:06:18.964Z,68.91
2022-10-13T00:08:46.324Z,68.04
2022-10-13T00:11:19.258Z,68.57
2022-10-13T00:13:47.558Z,68.63
2022-10-13T00:16:22.167Z,69.07
2022-10-13T00:18:50.299Z,69.20
2022-10-13T00:21:22.731Z,69.34
2022-10-13T00:23:51.810Z,69.74
2022-10-13T00:26:21.126Z,68.77
2022-10-13T00:28:52.299Z,69.24
2022-10-13T00:31:29.147Z,68.61
2022-10-13T00:33:58.350Z,68.73
2022-10-13T00:36:25.520Z,68.49
2022-10-13T00:38:53.952Z,68.42
2022-10-13T00:41:21.797Z,69.21
2022-10-13T00:44:05.527Z,69.26
2022-10-13T00:46:37.163Z,68.90
2022-10-13T00:49:16.708Z,68.71
2022-10-13T00:51:48.939Z,69.68
2022-10-13T00:54:23.493Z,69.52
2022-10-13T00:56:52.193Z,69.73
2022-10-13T00:59:29.131Z,69.42
2022-10-13T01:02:00.108Z,68.82
2022-10-13T01:04:34.582Z,69.09
2022-10-13T01:07:02.817Z,69.45
2022-10-13T01:09:37.342Z,69.06
2022-10-13T01:12:43.063Z,69.40
2022-10-13T01:15:17.260Z,69.39
2022-10-13T01:18:05.919Z,69.20
2022-10-13T01:20:49.254Z,69.32
2022-10-13T01:23:22.593Z,69.92
2022-10-13T01:26:22.993Z,69.98
2022-10-13T01:29:39.684Z,69.90
2022-10-13T01:32:24.767Z,70.09
2022-10-13T01:35:00.323Z,70.04
2022-10-13T01:38:08.345Z,69.83
2022-10-13T01:41:16.024Z,69.63
2022-10-13T01:44:01.094Z,70.15
2022-10-13T01:46:34.084Z,69.72
2022-10-13T01:49:09.818Z,69.63
2022-10-13T01:51:38.940Z,70.17
2022-10-13T01:54:06.435Z,69.25
2022-10-13T01:56:33.211Z,69.18
2022-10-13T01:59:08.371Z,68.92
2022-10-13T02:01:58.325Z,69.04
2022-10-13T02:05:01.787Z,69.57
2022-10-13T02:07:48.576Z,69.24
2022-10-13T02:10:28.805Z,69.54
2022-10-13T02:13:11.211Z,69.93
2022-10-13T02:15:46.171Z,69.70
2022-10-13T02:18:18.526Z,69.98
2022-10-13T02:20:46.583Z,69.85
2022-10-13T02:23:17.566Z,70.32
2022-10-13T02:25:47.375Z,70.41
2022-10-13T02:28:16.110Z,70.47
2022-10-13T02:30:45.408Z,70.31
2022-10-13T02:33:14.426Z,69.61
2022-10-13T02:35:42.217Z,70.36
2022-10-13T02:38:09.717Z,70.61
2022-10-13T02:40:37.464Z,70.26
2022-10-13T02:43:05.052Z,70.34
2022-10-13T02:45:31.987Z,70.94
2022-10-13T02:47:59.265Z,70.40
2022-10-13T02:50:26.123Z,70.38
2022-10-13T02:52:52.885Z,70.03
2022-10-13T02:55:19.897Z,70.13
2022-10-13T02:57:46.753Z,70.63
2022-10-13T03:00:14.826Z,70.06
2022-10-13T03:02:42.578Z,70.30
2022-10-13T03:05:10.447Z,70.65
2022-10-13T03:07:37.873Z,70.79
2022-10-13T03:10:05.767Z,70.80
2022-10-13T03:12:33.236Z,70.04
2022-10-13T03:15:00.661Z,70.81
2022-10-13T03:17:28.451Z,71.27
2022-10-13T03:19:55.330Z,70.95
2022-10-13T03:22:22.638Z,70.44
2022-10-13T03:24:49.883Z,70.87
2022-10-13T03:27:16.687Z,70.08
2022-10-13T03:29:44.215Z,70.38
2022-10-13T03:32:11.273Z,70.31
2022-10-13T03:34:38.076Z,70.51
2022-10-13T03:37:04.989Z,70.99
2022-10-13T03:39:32.004Z,70.20
2022-10-13T03:41:58.974Z,70.28
2022-10-13T03:44:25.886Z,70.25
2022-10-13T03:46:52.882Z,70.57
2022-10-13T03:49:20.012Z,70.87
2022-10-13T03:51:46.917Z,70.16
2022-10-13T03:54:14.780Z,70.30
2022-10-13T03:56:42.372Z,70.61
2022-10-13T03:59:13.265Z,70.05
2022-10-13T04:01:40.719Z,70.53
2022-10-13T04:04:11.169Z,70.49
2022-10-13T04:06:38.265Z,70.85
2022-10-13T04:09:05.891Z,70.63
2022-10-13T04:11:32.809Z,70.44
2022-10-13T04:13:59.741Z,70.71
2022-10-13T04:16:30.847Z,70.64
2022-10-13T04:19:05.086Z,70.93
2022-10-13T04:21:35.191Z,71.49
2022-10-13T04:24:02.925Z,70.85
2022-10-13T04:26:34.059Z,70.85
2022-10-13T04:29:05.752Z,70.61
2022-10-13T04:31:33.618Z,70.85
2022-10-13T04:34:00.573Z,71.19
2022-10-13T04:36:28.196Z,70.97
2022-10-13T04:38:55.464Z,70.46
2022-10-13T04:41:23.266Z,70.25
2022-10-13T04:43:52.216Z,70.50
2022-10-13T04:46:23.858Z,70.61
2022-10-13T04:48:52.060Z,70.39
2022-10-13T04:51:25.274Z,70.20
2022-10-13T04:54:02.078Z,70.45
2022-10-13T04:56:29.964Z,70.17
2022-10-13T04:58:57.426Z,70.57
2022-10-13T05:01:26.053Z,69.66
2022-10-13T05:04:00.325Z,69.87
2022-10-13T05:06:31.696Z,70.51
2022-10-13T05:08:59.175Z,70.15
2022-10-13T05:11:28.498Z,69.58
2022-10-13T05:13:57.473Z,69.36
2022-10-13T05:16:26.261Z,69.08
2022-10-13T05:18:55.377Z,69.27
2022-10-13T05:21:28.939Z,69.37
2022-10-13T05:23:57.684Z,69.69
2022-10-13T05:26:29.229Z,69.39
2022-10-13T05:28:57.959Z,69.05
2022-10-13T05:31:28.009Z,69.82
2022-10-13T05:33:55.784Z,69.70
2022-10-13T05:36:27.698Z,70.07
2022-10-13T05:38:59.759Z,70.63
2022-10-13T05:41:28.987Z,70.47
2022-10-13T05:44:04.702Z,69.82
2022-10-13T05:46:32.003Z,70.14
2022-10-13T05:48:59.334Z,70.16
2022-10-13T05:51:32.900Z,70.47
2022-10-13T05:54:16.041Z,70.33
2022-10-13T05:56:51.540Z,71.41
2022-10-13T05:59:26.886Z,70.77
2022-10-13T06:01:55.385Z,70.90
2022-10-13T06:04:32.945Z,70.98
2022-10-13T06:06:59.938Z,70.58
2022-10-13T06:09:35.705Z,70.99
2022-10-13T06:12:02.573Z,70.77
2022-10-13T06:14:30.641Z,70.94
2022-10-13T06:16:57.790Z,70.95
2022-10-13T06:19:24.697Z,71.11
2022-10-13T06:21:52.267Z,70.31
2022-10-13T06:24:19.185Z,70.33
2022-10-13T06:26:46.042Z,70.61
2022-10-13T06:29:13.052Z,70.03
2022-10-13T06:31:39.952Z,70.59
2022-10-13T06:34:06.797Z,70.65
2022-10-13T06:36:35.020Z,70.20
2022-10-13T06:39:01.850Z,70.72
2022-10-13T06:41:28.861Z,70.22
2022-10-13T06:43:56.104Z,70.53
2022-10-13T06:46:23.117Z,70.42
2022-10-13T06:48:51.553Z,70.27
2022-10-13T06:51:19.093Z,69.92
2022-10-13T06:53:46.103Z,69.78
2022-10-13T06:56:14.247Z,69.90
2022-10-13T06:58:41.174Z,69.12
2022-10-13T07:01:09.183Z,69.20
2022-10-13T07:03:36.032Z,69.01
2022-10-13T07:06:05.771Z,69.32
2022-10-13T07:08:34.100Z,69.26
2022-10-13T07:11:16.277Z,69.90
2022-10-13T07:13:46.613Z,69.19
2022-10-13T07:16:16.019Z,68.78
2022-10-13T07:18:43.337Z,68.34
2022-10-13T07:21:10.317Z,68.39
2022-10-13T07:23:37.338Z,68.30
2022-10-13T07:26:13.018Z,68.37
2022-10-13T07:28:40.606Z,67.93
2022-10-13T07:31:16.995Z,68.19
2022-10-13T07:33:48.146Z,68.17
2022-10-13T07:36:15.399Z,68.21
2022-10-13T07:38:42.404Z,67.78
2022-10-13T07:41:12.310Z,67.47
2022-10-13T07:43:40.241Z,67.77
2022-10-13T07:46:08.742Z,67.15
2022-10-13T07:48:36.509Z,67.64
2022-10-13T07:51:10.460Z,67.28
2022-10-13T07:53:38.430Z,67.35
2022-10-13T07:56:09.058Z,67.64
2022-10-13T07:58:46.793Z,67.27
2022-10-13T08:01:15.558Z,66.68
2022-10-13T08:03:47.334Z,66.85
2022-10-13T08:06:17.847Z,66.45
2022-10-13T08:08:44.948Z,66.12
2022-10-13T08:11:16.643Z,65.98
2022-10-13T08:13:51.926Z,66.08
2022-10-13T08:16:19.411Z,66.01
2022-10-13T08:18:48.872Z,65.43
2022-10-13T08:21:56.772Z,65.24
2022-10-13T08:24:15.997Z,65.45
2022-10-13T08:26:47.164Z,65.06
2022-10-13T08:29:23.598Z,65.04
2022-10-13T08:31:56.003Z,64.85
2022-10-13T08:34:24.857Z,64.97
2022-10-13T08:36:54.806Z,64.94
2022-10-13T08:39:23.717Z,64.99
2022-10-13T08:41:52.086Z,64.97
2022-10-13T08:47:38.436Z,64.19
2022-10-13T08:50:15.040Z,64.63
2022-10-13T08:53:03.916Z,64.54
2022-10-13T08:55:42.137Z,64.38
2022-10-13T08:58:23.600Z,64.38
2022-10-13T09:01:15.769Z,64.60
2022-10-13T09:04:15.732Z,64.58
2022-10-13T09:06:55.056Z,64.29
2022-10-13T09:09:22.592Z,63.90
2022-10-13T09:11:51.241Z,63.97
2022-10-13T09:14:32.923Z,64.33
2022-10-13T09:17:23.886Z,64.04
2022-10-13T09:20:21.329Z,64.09
2022-10-13T09:23:19.370Z,64.07
2022-10-13T09:25:52.481Z,64.27
2022-10-13T09:28:28.907Z,64.45
2022-10-13T09:31:14.244Z,64.37
2022-10-13T09:33:41.674Z,64.99
2022-10-13T09:36:16.795Z,64.43
2022-10-13T09:39:06.578Z,64.62
2022-10-13T09:41:35.564Z,64.72
2022-10-13T09:44:27.914Z,64.53
2022-10-13T09:47:04.169Z,64.67
2022-10-13T09:49:37.382Z,64.72
2022-10-13T09:52:13.236Z,64.71
2022-10-13T09:54:40.383Z,64.55
2022-10-13T09:57:16.786Z,64.18
2022-10-13T09:59:51.730Z,64.38
2022-10-13T10:02:35.654Z,64.18
2022-10-13T10:05:25.302Z,64.11
2022-10-13T10:07:56.583Z,64.25
2022-10-13T10:10:35.414Z,64.10
2022-10-13T10:13:03.492Z,64.11
2022-10-13T10:15:53.143Z,63.51
2022-10-13T10:18:45.641Z,63.62
2022-10-13T10:21:57.053Z,63.84
2022-10-13T10:25:06.492Z,63.39
2022-10-13T10:27:50.269Z,63.40
2022-10-13T10:30:20.551Z,63.38
2022-10-13T10:33:13.077Z,63.45
2022-10-13T10:36:02.223Z,63.01
2022-10-13T10:38:39.566Z,62.89
2022-10-13T10:41:34.324Z,62.96
2022-10-13T10:44:04.892Z,62.76
2022-10-13T10:46:39.133Z,63.42
2022-10-13T10:49:23.767Z,62.92
2022-10-13T10:51:51.053Z,62.48
2022-10-13T10:54:36.782Z,62.63
2022-10-13T10:57:24.812Z,62.36
2022-10-13T11:00:06.594Z,62.23
2022-10-13T11:03:07.505Z,61.83
2022-10-13T11:06:22.945Z,61.78
2022-10-13T11:08:50.837Z,62.02
2022-10-13T11:11:25.075Z,61.73
2022-10-13T11:14:21.599Z,61.67
2022-10-13T11:17:17.099Z,61.81
2022-10-13T11:19:45.898Z,60.69
2022-10-13T11:22:23.194Z,60.71
2022-10-13T11:25:00.662Z,60.76
2022-10-13T11:27:39.963Z,60.41
2022-10-13T11:30:47.608Z,60.73
2022-10-13T11:33:39.732Z,60.07
2022-10-13T11:36:30.439Z,60.27
2022-10-13T11:39:20.609Z,60.27
2022-10-13T11:42:36.503Z,60.50
2022-10-13T11:45:33.606Z,59.93
2022-10-13T11:48:45.196Z,59.94
2022-10-13T11:51:31.686Z,60.38
2022-10-13T11:54:23.735Z,60.18
2022-10-13T11:56:57.396Z,59.88
2022-10-13T11:59:32.363Z,59.98
2022-10-13T12:02:18.934Z,59.97
2022-10-13T12:05:20.623Z,59.38
2022-10-13T12:07:52.778Z,59.46
2022-10-13T12:10:36.519Z,59.50
2022-10-13T12:13:05.333Z,58.99
2022-10-13T12:15:37.651Z,59.04
2022-10-13T12:18:27.665Z,59.02
2022-10-13T12:20:58.904Z,59.27
2022-10-13T12:23:30.150Z,58.84
2022-10-13T12:25:59.067Z,59.24
2022-10-13T12:28:43.572Z,58.00
2022-10-13T12:31:21.713Z,57.51
2022-10-13T12:34:01.435Z,57.30
2022-10-13T12:36:35.528Z,57.14
2022-10-13T12:39:10.612Z,57.08
2022-10-13T12:41:44.978Z,57.24
2022-10-13T12:44:26.176Z,56.94
2022-10-13T12:46:59.337Z,57.21
2022-10-13T12:49:33.893Z,57.31
2022-10-13T12:52:24.292Z,57.27
2022-10-13T12:54:56.172Z,57.39
2022-10-13T12:57:38.654Z,57.25
2022-10-13T13:00:20.074Z,57.54
2022-10-13T13:03:03.253Z,57.60
2022-10-13T13:05:38.863Z,57.53
2022-10-13T13:08:29.838Z,57.68
2022-10-13T13:10:59.020Z,57.55
2022-10-13T13:13:27.738Z,57.78
2022-10-13T13:16:13.521Z,57.69
2022-10-13T13:18:46.198Z,56.96
2022-10-13T13:21:16.773Z,57.10
2022-10-13T13:23:51.142Z,56.90
2022-10-13T13:26:23.619Z,56.56
2022-10-13T13:28:54.180Z,57.23
2022-10-13T13:31:25.078Z,57.38
2022-10-13T13:33:52.924Z,57.33
2022-10-13T13:36:25.077Z,57.10
2022-10-13T13:38:55.610Z,57.01
2022-10-13T13:41:24.100Z,56.68
2022-10-13T13:43:51.132Z,56.08
2022-10-13T13:46:27.652Z,56.04
2022-10-13T13:48:54.747Z,56.08
2022-10-13T13:51:21.675Z,56.20
2022-10-13T13:53:48.522Z,56.28
2022-10-13T13:56:19.015Z,56.89
2022-10-13T13:58:46.914Z,56.79
2022-10-13T14:01:15.718Z,56.34
2022-10-13T14:03:42.907Z,56.12
2022-10-13T14:06:20.400Z,56.46
2022-10-13T14:08:47.594Z,56.71
2022-10-13T14:11:14.570Z,56.61
2022-10-13T14:13:41.564Z,57.06
2022-10-13T14:16:18.037Z,56.78
2022-10-13T14:18:45.009Z,56.59
2022-10-13T14:21:12.169Z,56.97
2022-10-13T14:23:39.904Z,57.16
2022-10-13T14:26:11.803Z,57.45
2022-10-13T14:28:44.850Z,57.12
2022-10-13T14:31:12.641Z,57.44
2022-10-13T14:33:40.723Z,56.63
2022-10-13T14:36:08.503Z,56.59
2022-10-13T14:38:35.443Z,56.26
2022-10-13T14:41:05.729Z,56.79
2022-10-13T14:43:33.388Z,56.81
2022-10-13T14:46:06.193Z,56.72
2022-10-13T14:48:35.897Z,56.98
2022-10-13T14:51:11.162Z,56.93
2022-10-13T14:53:45.022Z,56.82
2022-10-13T14:56:32.284Z,57.24
2022-10-13T14:59:02.532Z,57.06
2022-10-13T15:01:30.218Z,56.94
2022-10-13T15:03:57.139Z,57.16
2022-10-13T15:06:26.072Z,57.14
2022-10-13T15:08:53.565Z,57.34
2022-10-13T15:11:21.900Z,57.48
2022-10-13T15:13:49.403Z,57.51
2022-10-13T15:16:22.607Z,57.62
2022-10-13T15:18:50.127Z,57.73
2022-10-13T15:21:18.220Z,57.90
2022-10-13T15:23:45.888Z,57.92
2022-10-13T15:26:15.963Z,58.05
2022-10-13T15:28:47.220Z,58.50
2022-10-13T15:31:17.933Z,58.96
2022-10-13T15:33:53.807Z,58.88
2022-10-13T15:36:23.365Z,59.18
2022-10-13T15:38:51.311Z,59.26
2022-10-13T15:41:18.935Z,59.73
2022-10-13T15:43:46.083Z,59.98
2022-10-13T15:46:21.402Z,60.01
2022-10-13T15:48:53.401Z,60.00
2022-10-13T15:51:24.374Z,60.19
2022-10-13T15:53:51.543Z,60.34
2022-10-13T15:56:18.551Z,60.63
2022-10-13T15:58:45.715Z,60.49
2022-10-13T16:01:14.954Z,60.90
2022-10-13T16:03:42.461Z,61.39
2022-10-13T16:06:13.524Z,61.66
2022-10-13T16:08:44.296Z,61.74
2022-10-13T16:11:16.074Z,61.90
2022-10-13T16:13:53.355Z,61.93
2022-10-13T16:16:22.332Z,62.09
2022-10-13T16:18:50.909Z,62.33
2022-10-13T16:21:22.559Z,62.23
2022-10-13T16:23:50.163Z,62.09
2022-10-13T16:26:18.522Z,61.81
2022-10-13T16:28:46.804Z,61.74
2022-10-13T16:31:17.614Z,61.78
2022-10-13T16:33:45.834Z,61.77
2022-10-13T16:36:19.543Z,61.74
2022-10-13T16:38:48.058Z,61.80
2022-10-13T16:41:18.337Z,62.03
2022-10-13T16:43:47.130Z,62.06
2022-10-13T16:46:18.742Z,62.04
2022-10-13T16:48:47.228Z,62.47
2022-10-13T16:51:21.156Z,62.48
2022-10-13T16:53:59.958Z,62.55
2022-10-13T16:56:31.150Z,62.84
2022-10-13T16:59:04.688Z,62.61
2022-10-13T17:01:36.831Z,62.88
2022-10-13T17:04:05.270Z,62.83
2022-10-13T17:06:32.993Z,63.20
2022-10-13T17:09:03.388Z,62.99
2022-10-13T17:11:35.210Z,63.15
2022-10-13T17:14:05.717Z,63.23
2022-10-13T17:16:36.444Z,62.99
2022-10-13T17:19:03.970Z,63.16
2022-10-13T17:21:31.344Z,63.32
2022-10-13T17:23:58.306Z,63.34
2022-10-13T17:26:26.151Z,63.45
2022-10-13T17:28:54.221Z,63.16
2022-10-13T17:31:24.310Z,63.55
2022-10-13T17:33:53.154Z,63.84
2022-10-13T17:36:52.323Z,63.68
2022-10-13T17:39:20.558Z,63.88
2022-10-13T17:41:48.815Z,64.38
2022-10-13T17:44:20.708Z,64.39
2022-10-13T17:46:50.269Z,64.31
2022-10-13T17:49:28.561Z,64.44
2022-10-13T17:51:58.665Z,64.50
2022-10-13T17:54:25.848Z,64.77
2022-10-13T17:56:57.531Z,64.70
2022-10-13T17:59:24.850Z,64.72
2022-10-13T18:01:53.420Z,64.73
2022-10-13T18:04:23.056Z,64.60
2022-10-13T18:06:52.773Z,65.04
2022-10-13T18:09:24.608Z,64.77
2022-10-13T18:11:54.940Z,65.03
2022-10-13T18:14:25.193Z,65.20
2022-10-13T18:16:54.319Z,65.25
2022-10-13T18:19:22.957Z,65.16
2022-10-13T18:21:53.344Z,65.62
2022-10-13T18:24:21.211Z,65.78
2022-10-13T18:26:55.016Z,65.57
2022-10-13T18:29:23.960Z,65.94
2022-10-13T18:31:51.402Z,65.92
2022-10-13T18:34:19.013Z,65.92
2022-10-13T18:36:50.643Z,66.07
2022-10-13T18:39:22.674Z,66.39
2022-10-13T18:41:51.087Z,66.11
2022-10-13T18:44:20.469Z,66.39
2022-10-13T18:46:53.122Z,66.29
2022-10-13T18:49:23.906Z,66.24
2022-10-13T18:51:52.241Z,66.79
2022-10-13T18:54:19.632Z,66.56
2022-10-13T18:56:47.418Z,66.46
2022-10-13T18:59:15.676Z,67.11
2022-10-13T19:01:44.628Z,66.94
2022-10-13T19:04:14.896Z,66.89
2022-10-13T19:06:42.752Z,66.88
2022-10-13T19:09:14.080Z,67.01
2022-10-13T19:11:41.940Z,67.08
2022-10-13T19:14:12.933Z,66.71
2022-10-13T19:16:44.081Z,66.82
2022-10-13T19:19:14.193Z,67.03
2022-10-13T19:21:42.183Z,67.20
2022-10-13T19:24:11.138Z,67.05
2022-10-13T19:26:38.536Z,67.12
2022-10-13T19:29:11.901Z,66.92
2022-10-13T19:31:42.329Z,67.00
2022-10-13T19:34:11.940Z,67.01
2022-10-13T19:36:47.198Z,66.96
2022-10-13T19:39:23.174Z,67.07
2022-10-13T19:41:52.988Z,66.51
2022-10-13T19:44:23.459Z,67.05
2022-10-13T19:46:53.265Z,66.63
2022-10-13T19:49:26.779Z,66.68
2022-10-13T19:52:02.414Z,66.44
2022-10-13T19:54:33.938Z,66.57
2022-10-13T19:57:03.179Z,66.19
2022-10-13T19:59:30.520Z,66.51
2022-10-13T20:01:57.980Z,66.54
2022-10-13T20:04:25.480Z,66.42
2022-10-13T20:06:53.292Z,66.63
2022-10-13T20:09:21.090Z,66.53
2022-10-13T20:11:51.387Z,66.60
2022-10-13T20:14:20.671Z,66.54
2022-10-13T20:16:59.050Z,66.80
2022-10-13T20:19:31.278Z,66.79
2022-10-13T20:22:02.526Z,66.66
2022-10-13T20:24:29.749Z,67.04
2022-10-13T20:26:56.850Z,67.15
2022-10-13T20:29:24.480Z,67.25
2022-10-13T20:31:51.775Z,67.51
2022-10-13T20:34:19.167Z,67.28
2022-10-13T20:36:46.780Z,68.14
2022-10-13T20:39:13.710Z,67.65
2022-10-13T20:41:42.999Z,67.44
2022-10-13T20:44:11.133Z,67.66
2022-10-13T20:46:38.724Z,67.89
2022-10-13T20:49:11.062Z,67.74
2022-10-13T20:51:40.023Z,68.20
2022-10-13T20:54:08.171Z,67.67
2022-10-13T20:56:35.820Z,67.87
2022-10-13T20:59:06.338Z,68.08
2022-10-13T21:01:34.717Z,68.35
2022-10-13T21:04:01.754Z,68.23
2022-10-13T21:06:30.071Z,68.34
2022-10-13T21:08:57.775Z,68.21
2022-10-13T21:11:25.779Z,68.45
2022-10-13T21:13:54.402Z,68.54
2022-10-13T21:16:27.487Z,68.62
2022-10-13T21:18:57.401Z,68.67
2022-10-13T21:21:32.518Z,68.54
2022-10-13T21:24:03.671Z,68.44
2022-10-13T21:26:33.475Z,68.84
2022-10-13T21:29:02.424Z,69.05
2022-10-13T21:31:29.994Z,68.74
2022-10-13T21:33:57.198Z,68.85
2022-10-13T21:36:30.968Z,68.80
2022-10-13T21:39:04.885Z,69.08
2022-10-13T21:41:32.464Z,69.23
2022-10-13T21:43:59.676Z,69.17
2022-10-13T21:46:31.154Z,69.19
2022-10-13T21:49:02.425Z,69.33
2022-10-13T21:51:37.326Z,69.41
2022-10-13T21:54:10.090Z,69.45
2022-10-13T21:56:37.925Z,69.42
2022-10-13T21:59:05.849Z,69.68
2022-10-13T22:01:34.312Z,69.65
2022-10-13T22:04:02.543Z,69.76
2022-10-13T22:06:32.093Z,69.52
2022-10-13T22:09:02.472Z,69.70
2022-10-13T22:11:32.295Z,69.63
2022-10-13T22:14:00.035Z,69.64
2022-10-13T22:16:35.967Z,69.60
2022-10-13T22:19:03.668Z,69.48
2022-10-13T22:21:37.222Z,69.93
2022-10-13T22:24:08.252Z,69.83
2022-10-13T22:26:38.179Z,70.12
2022-10-13T22:29:07.662Z,70.26
2022-10-13T22:31:36.025Z,70.29
2022-10-13T22:34:04.693Z,70.56
2022-10-13T22:36:31.727Z,70.49
2022-10-13T22:39:02.832Z,70.59
2022-10-13T22:41:33.006Z,70.47
2022-10-13T22:44:01.905Z,70.57
2022-10-13T22:46:34.093Z,70.93
2022-10-13T22:49:02.110Z,70.83
2022-10-13T22:51:31.329Z,71.04
2022-10-13T22:53:59.038Z,71.15
2022-10-13T22:56:30.580Z,71.19
2022-10-13T22:59:02.049Z,70.99
2022-10-13T23:01:29.557Z,71.15
2022-10-13T23:03:58.954Z,71.33
2022-10-13T23:06:30.640Z,71.32
2022-10-13T23:09:02.116Z,71.30
2022-10-13T23:11:29.622Z,71.23
2022-10-13T23:13:56.451Z,70.96
2022-10-13T23:16:25.810Z,70.75
2022-10-13T23:18:53.632Z,71.12
2022-10-13T23:21:23.819Z,70.94
2022-10-13T23:23:59.956Z,70.90
2022-10-13T23:26:28.541Z,70.68
2022-10-13T23:28:57.654Z,70.93
2022-10-13T23:31:26.739Z,70.55
2022-10-13T23:33:54.063Z,70.88
2022-10-13T23:36:32.759Z,71.11
2022-10-13T23:39:04.966Z,71.05
2022-10-13T23:41:34.143Z,70.88
2022-10-13T23:44:01.171Z,71.05
2022-10-13T23:46:28.707Z,70.81
2022-10-13T23:48:56.477Z,70.62
2022-10-13T23:51:25.912Z,70.30
2022-10-13T23:53:53.497Z,70.59
2022-10-13T23:56:20.858Z,70.94
2022-10-13T23:58:48.292Z,71.26
